Time;durP1;ratioP1;P1;durP2;ratioP2;P2;SDS_P1;SDS_P2;PMS_P1;PMS_P2;Temp;Humidity;BMP_temperature;BMP_pressure;BME280_temperature;BME280_humidity;BME280_pressure;Samples;Min_cycle;Max_cycle;Signal;HPM_P1;HPM_P2
2023/09/03 00:01:11;;;;;;;18.33;16.73;;;;;;;;;;5090866;28;20406;-72
2023/09/03 00:03:39;;;;;;;18.08;16.38;;;;;;;;;;5089690;28;20426;-72
2023/09/03 00:06:06;;;;;;;17.92;16.33;;;;;;;;;;5089848;28;20418;-71
2023/09/03 00:08:34;;;;;;;18.10;16.40;;;;;;;;;;5090363;28;20418;-71
2023/09/03 00:11:01;;;;;;;17.30;15.80;;;;;;;;;;5090157;28;20425;-70
2023/09/03 00:13:28;;;;;;;17.52;16.02;;;;;;;;;;5089544;28;20652;-71
2023/09/03 00:15:55;;;;;;;19.00;17.13;;;;;;;;;;5090431;28;20694;-72
2023/09/03 00:18:22;;;;;;;18.58;16.88;;;;;;;;;;5089395;28;20421;-71
2023/09/03 00:21:00;;;;;;;18.40;16.80;;;;;;;;;;5096546;28;20506;-71
2023/09/03 00:23:27;;;;;;;18.30;16.60;;;;;;;;;;5105398;28;20499;-71
2023/09/03 00:25:57;;;;;;;19.30;17.40;;;;;;;;;;5090686;28;20410;-69
2023/09/03 00:28:24;;;;;;;18.70;16.90;;;;;;;;;;5090315;28;20414;-72
2023/09/03 00:31:01;;;;;;;19.58;17.77;;;;;;;;;;5090537;28;20432;-71
2023/09/03 00:33:28;;;;;;;19.50;17.60;;;;;;;;;;5080516;28;20514;-71
2023/09/03 00:35:55;;;;;;;19.52;17.83;;;;;;;;;;5090378;28;20463;-71
2023/09/03 00:38:22;;;;;;;18.77;17.17;;;;;;;;;;5082810;28;20406;-70
2023/09/03 00:40:49;;;;;;;19.52;17.73;;;;;;;;;;5089241;28;20418;-71
2023/09/03 00:43:18;;;;;;;19.30;17.52;;;;;;;;;;5088565;28;20438;-70
2023/09/03 00:45:47;;;;;;;20.20;18.30;;;;;;;;;;5090258;28;20508;-70
2023/09/03 00:48:15;;;;;;;20.85;18.95;;;;;;;;;;5088429;28;20441;-70
2023/09/03 00:50:42;;;;;;;22.38;20.17;;;;;;;;;;5089893;28;20429;-70
2023/09/03 00:53:10;;;;;;;21.23;19.25;;;;;;;;;;5087681;28;20487;-71
2023/09/03 00:55:38;;;;;;;20.90;18.90;;;;;;;;;;5085278;28;20930;-72
2023/09/03 00:58:06;;;;;;;20.45;18.60;;;;;;;;;;5088846;28;20414;-69
2023/09/03 01:00:35;;;;;;;22.33;20.25;;;;;;;;;;5086788;28;20450;-71
2023/09/03 01:03:04;;;;;;;22.70;20.50;;;;;;;;;;5088311;28;20437;-71
2023/09/03 01:05:31;;;;;;;21.55;19.58;;;;;;;;;;5089795;28;20471;-70
2023/09/03 01:07:59;;;;;;;20.60;18.58;;;;;;;;;;5089574;28;20406;-70
2023/09/03 01:10:29;;;;;;;20.92;19.02;;;;;;;;;;5088881;28;20422;-70
2023/09/03 01:13:00;;;;;;;20.00;18.20;;;;;;;;;;5089488;28;20430;-69
2023/09/03 01:15:29;;;;;;;21.77;19.48;;;;;;;;;;5088692;28;20841;-69
2023/09/03 01:18:02;;;;;;;21.13;19.13;;;;;;;;;;5089135;28;20430;-71
2023/09/03 01:20:32;;;;;;;20.23;18.42;;;;;;;;;;5082738;28;20398;-70
2023/09/03 01:23:15;;;;;;;21.60;19.55;;;;;;;;;;5088516;28;20417;-70
2023/09/03 01:25:47;;;;;;;21.55;19.55;;;;;;;;;;5084947;28;20409;-70
2023/09/03 01:28:24;;;;;;;21.48;19.27;;;;;;;;;;5088291;28;20433;-69
2023/09/03 01:30:52;;;;;;;22.95;20.75;;;;;;;;;;5084247;28;20426;-70
2023/09/03 01:33:19;;;;;;;23.50;21.20;;;;;;;;;;5084644;28;20449;-70
2023/09/03 01:35:47;;;;;;;23.80;21.50;;;;;;;;;;5088541;28;20412;-70
2023/09/03 01:38:14;;;;;;;24.05;21.65;;;;;;;;;;5088465;28;20498;-71
2023/09/03 01:40:41;;;;;;;23.63;21.23;;;;;;;;;;5089105;28;20417;-70
2023/09/03 01:43:08;;;;;;;23.55;21.27;;;;;;;;;;5088214;28;20788;-70
2023/09/03 01:45:39;;;;;;;23.05;20.80;;;;;;;;;;5088538;28;20912;-70
2023/09/03 01:48:10;;;;;;;24.50;22.10;;;;;;;;;;5085481;28;20429;-70
2023/09/03 01:50:42;;;;;;;25.83;23.02;;;;;;;;;;5089139;28;20434;-72
2023/09/03 01:53:13;;;;;;;25.27;22.70;;;;;;;;;;5089024;28;20406;-70
2023/09/03 01:55:43;;;;;;;26.43;23.73;;;;;;;;;;5088693;28;20456;-71
2023/09/03 01:58:11;;;;;;;26.00;23.40;;;;;;;;;;5087450;28;20436;-70
2023/09/03 02:00:40;;;;;;;26.17;23.38;;;;;;;;;;5096992;28;20788;-69
2023/09/03 02:03:08;;;;;;;25.98;23.25;;;;;;;;;;5093379;28;20430;-70
2023/09/03 02:05:35;;;;;;;26.55;23.80;;;;;;;;;;5091619;28;20428;-70
2023/09/03 02:08:02;;;;;;;24.45;21.95;;;;;;;;;;5090425;28;20429;-70
2023/09/03 02:10:29;;;;;;;25.50;22.80;;;;;;;;;;5088347;28;20695;-69
2023/09/03 02:12:56;;;;;;;26.50;23.70;;;;;;;;;;5089117;28;20410;-69
2023/09/03 02:15:23;;;;;;;26.38;23.67;;;;;;;;;;5088227;28;20414;-70
2023/09/03 02:17:53;;;;;;;27.65;24.85;;;;;;;;;;5087140;28;20938;-70
2023/09/03 02:20:20;;;;;;;27.70;24.70;;;;;;;;;;5088507;28;20406;-72
2023/09/03 02:22:47;;;;;;;27.65;24.63;;;;;;;;;;5087896;28;20429;-71
2023/09/03 02:25:15;;;;;;;27.38;24.48;;;;;;;;;;5088173;28;20410;-71
2023/09/03 02:27:42;;;;;;;27.98;24.80;;;;;;;;;;5087368;28;20486;-70
2023/09/03 02:30:09;;;;;;;28.15;25.25;;;;;;;;;;5085617;28;20430;-71
2023/09/03 02:32:36;;;;;;;27.10;24.30;;;;;;;;;;5086894;28;20434;-71
2023/09/03 02:35:05;;;;;;;28.35;25.35;;;;;;;;;;5085267;28;20433;-72
2023/09/03 02:37:32;;;;;;;28.65;25.65;;;;;;;;;;5087843;28;20426;-69
2023/09/03 02:39:59;;;;;;;28.65;25.77;;;;;;;;;;5087934;28;20416;-70
2023/09/03 02:42:26;;;;;;;27.90;25.00;;;;;;;;;;5088462;28;20414;-69
2023/09/03 02:44:53;;;;;;;28.05;25.15;;;;;;;;;;5091823;28;20418;-70
2023/09/03 02:47:20;;;;;;;28.85;25.85;;;;;;;;;;5091953;28;20441;-70
2023/09/03 02:49:47;;;;;;;27.40;24.45;;;;;;;;;;5091616;28;20420;-71
2023/09/03 02:52:16;;;;;;;27.20;24.53;;;;;;;;;;5091578;28;20448;-70
2023/09/03 02:54:43;;;;;;;28.50;25.45;;;;;;;;;;5091654;28;20428;-70
2023/09/03 02:57:10;;;;;;;27.15;24.40;;;;;;;;;;5090236;28;20429;-72
2023/09/03 02:59:37;;;;;;;27.80;24.90;;;;;;;;;;5106319;28;20413;-70
2023/09/03 03:02:04;;;;;;;26.70;23.90;;;;;;;;;;5100029;28;20441;-70
2023/09/03 03:04:31;;;;;;;28.30;25.30;;;;;;;;;;5088190;28;20425;-72
2023/09/03 03:06:58;;;;;;;27.73;24.83;;;;;;;;;;5091138;28;20429;-69
2023/09/03 03:09:27;;;;;;;28.97;25.47;;;;;;;;;;5084297;28;20890;-70
2023/09/03 03:11:54;;;;;;;27.67;24.77;;;;;;;;;;5091880;28;20815;-70
2023/09/03 03:14:21;;;;;;;29.05;25.80;;;;;;;;;;5087671;28;20760;-70
2023/09/03 03:16:48;;;;;;;29.10;26.00;;;;;;;;;;5091199;28;20984;-69
2023/09/03 03:19:15;;;;;;;28.92;25.95;;;;;;;;;;5089967;28;20520;-72
2023/09/03 03:21:42;;;;;;;29.17;26.08;;;;;;;;;;5088528;28;20434;-71
2023/09/03 03:24:09;;;;;;;29.48;26.27;;;;;;;;;;5081557;28;20415;-71
2023/09/03 03:26:38;;;;;;;29.48;26.38;;;;;;;;;;5091052;28;20417;-71
2023/09/03 03:29:07;;;;;;;28.15;25.15;;;;;;;;;;5089394;28;20430;-69
2023/09/03 03:31:35;;;;;;;28.88;25.88;;;;;;;;;;5091362;28;20777;-71
2023/09/03 03:34:02;;;;;;;31.40;28.08;;;;;;;;;;5089127;28;20506;-70
2023/09/03 03:36:29;;;;;;;30.73;27.42;;;;;;;;;;5091100;28;20410;-71
2023/09/03 03:38:56;;;;;;;31.60;27.90;;;;;;;;;;5090644;28;20433;-71
2023/09/03 03:41:23;;;;;;;30.98;27.67;;;;;;;;;;5090531;28;20414;-70
2023/09/03 03:43:52;;;;;;;31.60;28.20;;;;;;;;;;5090686;28;20496;-72
2023/09/03 03:46:20;;;;;;;30.77;27.48;;;;;;;;;;5090637;28;20437;-71
2023/09/03 03:48:48;;;;;;;30.52;27.33;;;;;;;;;;5089753;28;20441;-70
2023/09/03 03:51:15;;;;;;;28.75;25.65;;;;;;;;;;5090745;28;21077;-72
2023/09/03 03:53:43;;;;;;;28.95;26.02;;;;;;;;;;5089879;28;20410;-70
2023/09/03 03:56:10;;;;;;;28.30;25.40;;;;;;;;;;5090224;28;20410;-70
2023/09/03 03:58:38;;;;;;;27.67;24.77;;;;;;;;;;5089927;28;20426;-70
2023/09/03 04:01:13;;;;;;;29.02;26.02;;;;;;;;;;5088437;28;20424;-71
2023/09/03 04:03:40;;;;;;;26.75;23.95;;;;;;;;;;5089917;28;20982;-71
2023/09/03 04:06:07;;;;;;;29.27;26.15;;;;;;;;;;5098910;28;20442;-72
2023/09/03 04:08:35;;;;;;;28.38;25.27;;;;;;;;;;5089562;28;20440;-71
2023/09/03 04:11:03;;;;;;;28.37;25.47;;;;;;;;;;5089956;28;20426;-71
2023/09/03 04:13:30;;;;;;;28.93;26.03;;;;;;;;;;5090446;28;20411;-70
2023/09/03 04:15:58;;;;;;;27.33;24.52;;;;;;;;;;5089961;28;20428;-69
2023/09/03 04:18:27;;;;;;;29.65;26.65;;;;;;;;;;5086431;28;20960;-70
2023/09/03 04:20:54;;;;;;;29.65;26.48;;;;;;;;;;5085790;28;20406;-69
2023/09/03 04:23:21;;;;;;;32.00;28.65;;;;;;;;;;5090837;28;20425;-70
2023/09/03 04:25:48;;;;;;;32.22;28.85;;;;;;;;;;5090497;28;20420;-71
2023/09/03 04:28:15;;;;;;;31.58;27.67;;;;;;;;;;5089104;28;20548;-70
2023/09/03 04:30:42;;;;;;;30.33;27.23;;;;;;;;;;5090641;28;20418;-70
2023/09/03 04:33:10;;;;;;;30.70;27.45;;;;;;;;;;5088566;28;20467;-70
2023/09/03 04:35:38;;;;;;;31.52;28.13;;;;;;;;;;5088183;28;20474;-70
2023/09/03 04:38:06;;;;;;;30.20;27.00;;;;;;;;;;5089616;28;20425;-71
2023/09/03 04:40:34;;;;;;;31.52;27.27;;;;;;;;;;5090250;28;20961;-70
2023/09/03 04:43:01;;;;;;;28.35;25.55;;;;;;;;;;5089251;28;20482;-71
2023/09/03 04:45:28;;;;;;;29.65;26.65;;;;;;;;;;5090423;28;20406;-71
2023/09/03 04:47:56;;;;;;;28.05;25.05;;;;;;;;;;5102187;22;20425;-73
2023/09/03 04:50:23;;;;;;;28.60;25.65;;;;;;;;;;5065695;28;20856;-73
2023/09/03 04:52:51;;;;;;;27.85;25.02;;;;;;;;;;5074632;28;20514;-73
2023/09/03 04:55:18;;;;;;;26.00;23.27;;;;;;;;;;5083515;28;20429;-74
2023/09/03 04:57:45;;;;;;;28.02;25.02;;;;;;;;;;5070219;28;20435;-73
2023/09/03 05:00:13;;;;;;;27.70;24.80;;;;;;;;;;5062365;28;20478;-73
2023/09/03 05:02:40;;;;;;;28.10;25.10;;;;;;;;;;5063139;28;20442;-74
2023/09/03 05:05:08;;;;;;;28.75;25.85;;;;;;;;;;5063047;28;20436;-73
2023/09/03 05:07:35;;;;;;;30.50;26.85;;;;;;;;;;5056776;28;20427;-73
2023/09/03 05:10:03;;;;;;;28.52;25.00;;;;;;;;;;5065197;28;20415;-74
2023/09/03 05:12:30;;;;;;;29.42;26.23;;;;;;;;;;5064646;28;20691;-73
2023/09/03 05:14:57;;;;;;;30.30;27.15;;;;;;;;;;5065044;28;20901;-73
2023/09/03 05:17:24;;;;;;;30.40;27.10;;;;;;;;;;5063243;28;20438;-73
2023/09/03 05:19:51;;;;;;;29.45;26.25;;;;;;;;;;5062212;28;20465;-74
2023/09/03 05:22:19;;;;;;;30.30;27.10;;;;;;;;;;5064162;28;20883;-73
2023/09/03 05:24:46;;;;;;;31.95;28.55;;;;;;;;;;5065117;28;20431;-74
2023/09/03 05:27:14;;;;;;;31.20;27.80;;;;;;;;;;5063458;28;20414;-73
2023/09/03 05:29:41;;;;;;;31.92;28.38;;;;;;;;;;5063699;28;20424;-73
2023/09/03 05:32:08;;;;;;;32.63;28.23;;;;;;;;;;5064667;28;20953;-73
2023/09/03 05:34:35;;;;;;;30.97;27.07;;;;;;;;;;5063325;28;20442;-73
2023/09/03 05:37:03;;;;;;;30.55;27.35;;;;;;;;;;5064256;28;20442;-73
2023/09/03 05:39:31;;;;;;;29.98;26.88;;;;;;;;;;5061820;28;20766;-73
2023/09/03 05:41:58;;;;;;;28.47;25.37;;;;;;;;;;5064609;28;20471;-73
2023/09/03 05:44:26;;;;;;;29.08;26.08;;;;;;;;;;5063060;28;20446;-73
2023/09/03 05:46:53;;;;;;;27.15;24.25;;;;;;;;;;5064876;28;20432;-73
2023/09/03 05:49:20;;;;;;;26.83;24.23;;;;;;;;;;5062972;28;20546;-73
2023/09/03 05:51:47;;;;;;;26.10;23.42;;;;;;;;;;5063918;28;20479;-73
2023/09/03 05:54:14;;;;;;;24.50;22.00;;;;;;;;;;5062351;28;20575;-73
2023/09/03 05:56:41;;;;;;;26.00;23.40;;;;;;;;;;5063602;28;20427;-73
2023/09/03 05:59:10;;;;;;;26.23;23.60;;;;;;;;;;5063428;28;20497;-73
2023/09/03 06:01:39;;;;;;;25.83;23.13;;;;;;;;;;5056478;28;20427;-73
2023/09/03 06:04:09;;;;;;;25.40;22.83;;;;;;;;;;5062148;28;20530;-74
2023/09/03 06:06:37;;;;;;;23.10;20.70;;;;;;;;;;5062083;28;20420;-73
2023/09/03 06:09:05;;;;;;;22.13;20.13;;;;;;;;;;5063190;28;20809;-73
2023/09/03 06:11:32;;;;;;;21.25;19.05;;;;;;;;;;5062935;28;20423;-73
2023/09/03 06:14:00;;;;;;;22.40;20.20;;;;;;;;;;5063066;28;20428;-73
2023/09/03 06:16:27;;;;;;;21.40;19.30;;;;;;;;;;5062936;28;20514;-73
2023/09/03 06:18:55;;;;;;;21.02;19.02;;;;;;;;;;5061597;28;20442;-73
2023/09/03 06:21:24;;;;;;;20.88;18.88;;;;;;;;;;5060621;28;20938;-73
2023/09/03 06:23:51;;;;;;;21.35;19.30;;;;;;;;;;5063355;28;20427;-73
2023/09/03 06:26:18;;;;;;;23.40;20.90;;;;;;;;;;5061513;28;20808;-73
2023/09/03 06:28:46;;;;;;;23.40;21.10;;;;;;;;;;5064490;28;20419;-73
2023/09/03 06:31:13;;;;;;;22.95;20.65;;;;;;;;;;5060144;28;20440;-74
2023/09/03 06:33:41;;;;;;;22.67;20.47;;;;;;;;;;5063569;28;20439;-74
2023/09/03 06:36:11;;;;;;;23.42;21.13;;;;;;;;;;5060245;28;20466;-74
2023/09/03 06:38:39;;;;;;;22.40;20.25;;;;;;;;;;5062958;28;20427;-73
2023/09/03 06:41:06;;;;;;;23.52;21.20;;;;;;;;;;5063309;28;20792;-73
2023/09/03 06:43:33;;;;;;;23.75;21.35;;;;;;;;;;5063081;28;20428;-73
2023/09/03 06:46:01;;;;;;;23.90;21.60;;;;;;;;;;5061405;28;20451;-73
2023/09/03 06:48:28;;;;;;;25.55;22.30;;;;;;;;;;5062941;28;20446;-73
2023/09/03 06:50:57;;;;;;;22.90;20.60;;;;;;;;;;5061581;28;20446;-73
2023/09/03 06:53:26;;;;;;;23.38;21.08;;;;;;;;;;5060456;28;21405;-73
2023/09/03 06:55:53;;;;;;;23.33;21.03;;;;;;;;;;5062894;28;20476;-73
2023/09/03 06:58:20;;;;;;;23.45;21.15;;;;;;;;;;5062704;28;20911;-74
2023/09/03 07:00:47;;;;;;;23.65;21.15;;;;;;;;;;5064221;28;20415;-73
2023/09/03 07:03:14;;;;;;;22.88;20.67;;;;;;;;;;5063528;28;20407;-73
2023/09/03 07:05:42;;;;;;;23.50;21.40;;;;;;;;;;5063030;28;20431;-73
2023/09/03 07:08:09;;;;;;;21.15;19.15;;;;;;;;;;5062295;28;20676;-73
2023/09/03 07:10:37;;;;;;;20.50;18.60;;;;;;;;;;5062037;28;20526;-73
2023/09/03 07:13:05;;;;;;;20.80;18.80;;;;;;;;;;5063256;28;20427;-73
2023/09/03 07:15:32;;;;;;;19.13;17.42;;;;;;;;;;5062962;28;20439;-73
2023/09/03 07:17:59;;;;;;;20.70;18.75;;;;;;;;;;5063440;28;20422;-73
2023/09/03 07:20:26;;;;;;;20.20;18.30;;;;;;;;;;5061499;28;20955;-75
2023/09/03 07:22:53;;;;;;;21.95;19.95;;;;;;;;;;5063194;28;20846;-74
2023/09/03 07:25:20;;;;;;;21.80;19.80;;;;;;;;;;5060950;28;20790;-74
2023/09/03 07:27:48;;;;;;;21.90;19.83;;;;;;;;;;5060963;28;20906;-74
2023/09/03 07:30:16;;;;;;;21.70;19.70;;;;;;;;;;5061488;28;20479;-74
2023/09/03 07:32:43;;;;;;;20.85;18.95;;;;;;;;;;5067034;28;20482;-74
2023/09/03 07:35:10;;;;;;;20.60;18.70;;;;;;;;;;5067871;28;20443;-74
2023/09/03 07:37:37;;;;;;;20.00;18.10;;;;;;;;;;5067106;28;20427;-74
2023/09/03 07:40:05;;;;;;;18.80;17.10;;;;;;;;;;5067781;28;20423;-74
2023/09/03 07:42:32;;;;;;;20.13;18.15;;;;;;;;;;5059062;28;20429;-74
2023/09/03 07:45:00;;;;;;;18.05;16.55;;;;;;;;;;5066804;28;20439;-74
2023/09/03 07:47:27;;;;;;;16.70;15.20;;;;;;;;;;5065917;28;20412;-74
2023/09/03 07:49:54;;;;;;;16.67;15.27;;;;;;;;;;5064289;28;20431;-74
2023/09/03 07:52:21;;;;;;;16.58;15.07;;;;;;;;;;5065325;28;20439;-74
2023/09/03 07:54:48;;;;;;;17.23;15.75;;;;;;;;;;5065952;28;20408;-74
2023/09/03 07:57:16;;;;;;;17.00;15.60;;;;;;;;;;5066254;28;20427;-74
2023/09/03 07:59:43;;;;;;;18.75;17.15;;;;;;;;;;5064643;28;20423;-74
2023/09/03 08:02:12;;;;;;;18.60;17.00;;;;;;;;;;5065840;28;20411;-74
2023/09/03 08:04:42;;;;;;;18.67;17.08;;;;;;;;;;5064159;28;20435;-74
2023/09/03 08:07:10;;;;;;;18.90;17.20;;;;;;;;;;5065497;28;20415;-75
2023/09/03 08:09:37;;;;;;;17.73;16.00;;;;;;;;;;5066282;28;20529;-76
2023/09/03 08:12:04;;;;;;;17.70;16.10;;;;;;;;;;5077098;28;20437;-78
2023/09/03 08:14:31;;;;;;;18.60;16.90;;;;;;;;;;5068485;28;20811;-77
2023/09/03 08:16:58;;;;;;;19.90;17.90;;;;;;;;;;5062893;28;20775;-74
2023/09/03 08:19:26;;;;;;;19.90;18.10;;;;;;;;;;5063200;28;21246;-74
2023/09/03 08:21:53;;;;;;;18.23;16.52;;;;;;;;;;5064833;28;20889;-74
2023/09/03 08:24:20;;;;;;;19.67;17.77;;;;;;;;;;5064913;28;20503;-74
2023/09/03 08:26:49;;;;;;;18.35;16.65;;;;;;;;;;5066320;28;20413;-74
2023/09/03 08:29:16;;;;;;;18.90;17.20;;;;;;;;;;5064348;28;20424;-73
2023/09/03 08:31:43;;;;;;;18.55;16.85;;;;;;;;;;5064048;28;20432;-74
2023/09/03 08:34:10;;;;;;;18.20;16.50;;;;;;;;;;5063996;28;20941;-74
2023/09/03 08:36:39;;;;;;;18.75;17.02;;;;;;;;;;5065408;28;20412;-73
2023/09/03 08:39:06;;;;;;;18.48;16.88;;;;;;;;;;5065395;28;20878;-76
2023/09/03 08:41:34;;;;;;;18.77;17.08;;;;;;;;;;5064018;28;20427;-73
2023/09/03 08:44:04;;;;;;;18.25;16.45;;;;;;;;;;5068104;28;20894;-73
2023/09/03 08:46:32;;;;;;;19.73;17.93;;;;;;;;;;5059884;28;20517;-76
2023/09/03 08:48:59;;;;;;;18.90;17.20;;;;;;;;;;5070985;28;20408;-74
2023/09/03 08:51:27;;;;;;;20.08;18.27;;;;;;;;;;5062985;28;20835;-74
2023/09/03 08:53:56;;;;;;;19.13;17.42;;;;;;;;;;5066322;28;20424;-75
2023/09/03 08:56:24;;;;;;;19.10;17.40;;;;;;;;;;5062393;28;20424;-74
2023/09/03 08:58:51;;;;;;;19.58;17.77;;;;;;;;;;5065149;28;20526;-74
2023/09/03 09:01:18;;;;;;;18.23;16.52;;;;;;;;;;5064406;28;20515;-73
2023/09/03 09:03:46;;;;;;;19.83;17.92;;;;;;;;;;5066444;28;20431;-74
2023/09/03 09:06:13;;;;;;;19.35;17.55;;;;;;;;;;5063794;28;20511;-73
2023/09/03 09:08:41;;;;;;;19.05;17.35;;;;;;;;;;5063329;28;20408;-74
2023/09/03 09:11:17;;;;;;;17.42;15.93;;;;;;;;;;5062236;28;20438;-74
2023/09/03 09:13:51;;;;;;;18.10;16.40;;;;;;;;;;5063607;28;20427;-75
2023/09/03 09:16:18;;;;;;;17.65;16.10;;;;;;;;;;5063282;28;20532;-75
2023/09/03 09:18:45;;;;;;;17.43;15.93;;;;;;;;;;5063920;28;20439;-75
2023/09/03 09:21:12;;;;;;;17.90;16.30;;;;;;;;;;5063801;28;20426;-76
2023/09/03 09:23:39;;;;;;;17.98;16.38;;;;;;;;;;5063785;28;20474;-74
2023/09/03 09:26:17;;;;;;;17.45;15.95;;;;;;;;;;5064681;28;20411;-73
2023/09/03 09:28:57;;;;;;;17.80;16.30;;;;;;;;;;5058801;28;20451;-75
2023/09/03 09:31:27;;;;;;;16.67;15.18;;;;;;;;;;5064622;28;20435;-73
2023/09/03 09:33:54;;;;;;;17.60;16.10;;;;;;;;;;5063077;28;20434;-74
2023/09/03 09:36:21;;;;;;;16.73;15.32;;;;;;;;;;5063827;28;20424;-73
2023/09/03 09:38:48;;;;;;;15.80;14.40;;;;;;;;;;5063119;28;20480;-74
2023/09/03 09:41:24;;;;;;;14.50;13.35;;;;;;;;;;5064210;28;20427;-75
2023/09/03 09:43:52;;;;;;;14.93;13.63;;;;;;;;;;5065284;28;20404;-74
2023/09/03 09:46:28;;;;;;;15.98;14.57;;;;;;;;;;5059773;28;20487;-74
2023/09/03 09:48:56;;;;;;;15.43;14.13;;;;;;;;;;5063347;28;20419;-74
2023/09/03 09:51:23;;;;;;;15.38;14.07;;;;;;;;;;5057383;28;20573;-70
2023/09/03 09:53:55;;;;;;;14.43;13.23;;;;;;;;;;5059706;28;20427;-68
2023/09/03 09:56:26;;;;;;;15.07;13.77;;;;;;;;;;5063361;28;20467;-70
2023/09/03 09:58:53;;;;;;;13.77;12.60;;;;;;;;;;5062949;28;20503;-68
2023/09/03 10:01:20;;;;;;;14.63;13.32;;;;;;;;;;5061639;28;20878;-69
2023/09/03 10:03:48;;;;;;;13.80;12.60;;;;;;;;;;5062988;28;20789;-76
2023/09/03 10:06:16;;;;;;;13.90;12.80;;;;;;;;;;5063845;28;20468;-76
2023/09/03 10:08:44;;;;;;;13.60;12.50;;;;;;;;;;5064176;28;20415;-76
2023/09/03 10:11:11;;;;;;;12.73;11.73;;;;;;;;;;5059808;28;20767;-75
2023/09/03 10:13:41;;;;;;;13.00;12.00;;;;;;;;;;5064655;28;20876;-76
2023/09/03 10:16:08;;;;;;;12.00;11.00;;;;;;;;;;5064075;28;20423;-76
2023/09/03 10:18:37;;;;;;;12.57;11.57;;;;;;;;;;5063538;28;20736;-75
2023/09/03 10:21:05;;;;;;;12.07;10.90;;;;;;;;;;5061414;28;20996;-76
2023/09/03 10:23:35;;;;;;;10.68;9.80;;;;;;;;;;5062255;28;20545;-76
2023/09/03 10:26:03;;;;;;;11.00;10.20;;;;;;;;;;5059795;28;20413;-76
2023/09/03 10:28:30;;;;;;;10.10;9.30;;;;;;;;;;5062888;28;20499;-75
2023/09/03 10:30:58;;;;;;;9.60;8.90;;;;;;;;;;5059357;28;20450;-76
2023/09/03 10:33:25;;;;;;;9.85;9.05;;;;;;;;;;5060613;28;20439;-76
2023/09/03 10:36:11;;;;;;;9.45;8.65;;;;;;;;;;5057380;28;20408;-76
2023/09/03 10:38:38;;;;;;;9.82;9.13;;;;;;;;;;5055130;28;20427;-77
2023/09/03 10:41:18;;;;;;;9.10;8.30;;;;;;;;;;5060014;28;20441;-76
2023/09/03 10:43:46;;;;;;;8.40;7.80;;;;;;;;;;5056862;28;20472;-76
2023/09/03 10:46:15;;;;;;;10.07;9.38;;;;;;;;;;5061856;28;20778;-74
2023/09/03 10:48:42;;;;;;;9.93;9.13;;;;;;;;;;5120197;22;20508;-69
2023/09/03 10:51:09;;;;;;;9.50;8.77;;;;;;;;;;5116754;28;20423;-70
2023/09/03 10:53:40;;;;;;;10.05;9.35;;;;;;;;;;5127985;28;20792;-70
2023/09/03 10:56:08;;;;;;;7.90;7.30;;;;;;;;;;5129669;28;20492;-70
2023/09/03 10:58:35;;;;;;;7.80;7.20;;;;;;;;;;5128632;28;20426;-68
2023/09/03 11:01:20;;;;;;;7.20;6.60;;;;;;;;;;5135763;28;20907;-68
2023/09/03 11:03:47;;;;;;;6.75;6.25;;;;;;;;;;5121432;27;20410;-70
2023/09/03 11:06:18;;;;;;;7.60;7.00;;;;;;;;;;5120198;27;20407;-70
2023/09/03 11:08:46;;;;;;;6.10;5.60;;;;;;;;;;5129445;27;20406;-68
2023/09/03 11:11:19;;;;;;;5.85;5.45;;;;;;;;;;5128581;27;20411;-70
2023/09/03 11:13:49;;;;;;;5.40;5.00;;;;;;;;;;5122445;27;20430;-70
2023/09/03 11:16:16;;;;;;;5.00;4.60;;;;;;;;;;5127335;27;20403;-70
2023/09/03 11:18:49;;;;;;;4.90;4.50;;;;;;;;;;5129013;27;20740;-70
2023/09/03 11:21:16;;;;;;;4.32;3.95;;;;;;;;;;5132124;27;20839;-70
2023/09/03 11:23:59;;;;;;;5.20;4.80;;;;;;;;;;5122585;27;20417;-70
2023/09/03 11:26:26;;;;;;;4.63;4.30;;;;;;;;;;5131605;27;20403;-68
2023/09/03 11:28:53;;;;;;;4.15;3.85;;;;;;;;;;5126461;27;20801;-70
2023/09/03 11:31:21;;;;;;;4.20;3.90;;;;;;;;;;5126457;27;20411;-69
2023/09/03 11:33:50;;;;;;;3.70;3.40;;;;;;;;;;5145330;27;20422;-71
2023/09/03 11:36:21;;;;;;;3.72;3.42;;;;;;;;;;5137138;27;20421;-71
2023/09/03 11:38:48;;;;;;;3.40;3.20;;;;;;;;;;5128244;27;20434;-70
2023/09/03 11:41:16;;;;;;;3.42;3.13;;;;;;;;;;5122472;27;20404;-69
2023/09/03 11:43:44;;;;;;;3.33;3.10;;;;;;;;;;5122325;27;20420;-68
2023/09/03 11:46:13;;;;;;;3.72;3.42;;;;;;;;;;5125115;27;20411;-69
2023/09/03 11:48:40;;;;;;;4.05;3.75;;;;;;;;;;5127243;27;20510;-71
2023/09/03 11:51:09;;;;;;;3.67;3.38;;;;;;;;;;5133072;27;20402;-69
2023/09/03 11:53:39;;;;;;;3.50;3.20;;;;;;;;;;5126279;27;20462;-68
2023/09/03 11:56:08;;;;;;;3.60;3.40;;;;;;;;;;5133246;27;20467;-70
2023/09/03 11:58:35;;;;;;;3.15;2.95;;;;;;;;;;5124263;27;20424;-70
2023/09/03 12:01:02;;;;;;;3.55;3.17;;;;;;;;;;5124918;27;20408;-71
2023/09/03 12:03:29;;;;;;;3.30;3.10;;;;;;;;;;5130982;27;20471;-70
2023/09/03 12:05:56;;;;;;;2.42;2.33;;;;;;;;;;5131362;27;20411;-69
2023/09/03 12:08:25;;;;;;;3.10;2.88;;;;;;;;;;5126658;27;20441;-69
2023/09/03 12:10:52;;;;;;;2.80;2.60;;;;;;;;;;5129029;27;20472;-70
2023/09/03 12:13:32;;;;;;;2.55;2.30;;;;;;;;;;5124951;27;20905;-70
2023/09/03 12:16:03;;;;;;;2.20;2.10;;;;;;;;;;5124427;27;20427;-69
2023/09/03 12:18:30;;;;;;;4.03;2.30;;;;;;;;;;5130312;27;20411;-69
2023/09/03 12:20:57;;;;;;;2.55;2.35;;;;;;;;;;5127826;27;20399;-69
2023/09/03 12:23:26;;;;;;;2.25;2.10;;;;;;;;;;5129701;27;20798;-70
2023/09/03 12:25:53;;;;;;;2.55;2.35;;;;;;;;;;5136531;27;20534;-68
2023/09/03 12:28:32;;;;;;;2.60;2.40;;;;;;;;;;5141518;27;20422;-70
2023/09/03 12:31:00;;;;;;;2.73;2.53;;;;;;;;;;5129772;27;20626;-71
2023/09/03 12:33:27;;;;;;;2.85;2.53;;;;;;;;;;5129338;27;20430;-69
2023/09/03 12:36:04;;;;;;;2.10;2.00;;;;;;;;;;5120040;27;20408;-70
2023/09/03 12:38:33;;;;;;;2.70;2.50;;;;;;;;;;5131245;27;20728;-70
2023/09/03 12:41:00;;;;;;;2.72;2.53;;;;;;;;;;5131724;27;20406;-69
2023/09/03 12:43:27;;;;;;;2.40;2.20;;;;;;;;;;5130617;27;20425;-71
2023/09/03 12:45:54;;;;;;;2.10;1.90;;;;;;;;;;5129875;27;20422;-70
2023/09/03 12:48:21;;;;;;;2.70;2.50;;;;;;;;;;5125093;27;20445;-70
2023/09/03 12:50:48;;;;;;;2.70;2.50;;;;;;;;;;5121712;27;20422;-71
2023/09/03 12:53:15;;;;;;;2.63;2.40;;;;;;;;;;5118095;27;20531;-70
2023/09/03 12:55:43;;;;;;;2.50;2.30;;;;;;;;;;5128197;27;20422;-69
2023/09/03 12:58:10;;;;;;;3.10;2.70;;;;;;;;;;5130792;27;20517;-68
2023/09/03 13:00:37;;;;;;;2.58;2.20;;;;;;;;;;5129790;27;20422;-70
2023/09/03 13:03:05;;;;;;;2.33;2.22;;;;;;;;;;5128028;27;20422;-69
2023/09/03 13:05:32;;;;;;;2.60;2.40;;;;;;;;;;5132091;27;20524;-70
2023/09/03 13:07:59;;;;;;;2.33;2.07;;;;;;;;;;5131537;27;20429;-70
2023/09/03 13:10:26;;;;;;;2.40;2.20;;;;;;;;;;5128810;27;20780;-69
2023/09/03 13:12:54;;;;;;;3.10;2.90;;;;;;;;;;5124507;27;20426;-70
2023/09/03 13:15:21;;;;;;;2.15;2.05;;;;;;;;;;5128825;27;20602;-70
2023/09/03 13:17:51;;;;;;;2.50;2.30;;;;;;;;;;5128864;27;20422;-71
2023/09/03 13:20:18;;;;;;;2.30;2.10;;;;;;;;;;5123814;27;20420;-70
2023/09/03 13:22:45;;;;;;;2.60;2.35;;;;;;;;;;5129543;27;20407;-69
2023/09/03 13:25:12;;;;;;;2.60;2.40;;;;;;;;;;5122418;27;20407;-69
2023/09/03 13:27:39;;;;;;;2.80;2.60;;;;;;;;;;5124143;27;20952;-69
2023/09/03 13:30:10;;;;;;;2.80;2.60;;;;;;;;;;5120956;27;20416;-70
2023/09/03 13:32:37;;;;;;;2.60;2.40;;;;;;;;;;5130704;27;20491;-70
2023/09/03 13:35:04;;;;;;;2.63;2.35;;;;;;;;;;5131055;27;20422;-69
2023/09/03 13:37:31;;;;;;;2.30;2.10;;;;;;;;;;5132860;27;20838;-68
2023/09/03 13:39:58;;;;;;;3.00;2.80;;;;;;;;;;5125038;27;20426;-71
2023/09/03 13:42:25;;;;;;;3.15;2.95;;;;;;;;;;5128282;27;20792;-70
2023/09/03 13:44:53;;;;;;;2.90;2.70;;;;;;;;;;5130846;27;20863;-70
2023/09/03 13:47:22;;;;;;;2.70;2.50;;;;;;;;;;5129678;27;20490;-69
2023/09/03 13:49:50;;;;;;;2.85;2.65;;;;;;;;;;5130294;27;20418;-71
2023/09/03 13:52:18;;;;;;;2.50;2.30;;;;;;;;;;5130071;27;20410;-70
2023/09/03 13:54:45;;;;;;;2.50;2.30;;;;;;;;;;5127209;27;20433;-70
2023/09/03 13:57:12;;;;;;;2.30;2.10;;;;;;;;;;5130577;27;20421;-70
2023/09/03 13:59:39;;;;;;;2.23;2.13;;;;;;;;;;5130260;27;20475;-70
2023/09/03 14:02:06;;;;;;;2.35;1.98;;;;;;;;;;5123047;27;20408;-70
2023/09/03 14:04:35;;;;;;;2.70;2.50;;;;;;;;;;5127611;27;20437;-69
2023/09/03 14:07:02;;;;;;;3.40;2.20;;;;;;;;;;5126690;27;20412;-70
2023/09/03 14:09:29;;;;;;;2.40;2.30;;;;;;;;;;5127180;27;20431;-71
2023/09/03 14:11:56;;;;;;;2.30;2.10;;;;;;;;;;5129215;27;20431;-69
2023/09/03 14:14:23;;;;;;;2.40;2.20;;;;;;;;;;5132383;27;20901;-70
2023/09/03 14:16:50;;;;;;;2.42;2.30;;;;;;;;;;5133185;27;20430;-70
2023/09/03 14:19:17;;;;;;;2.80;2.60;;;;;;;;;;5130525;27;20422;-70
2023/09/03 14:21:46;;;;;;;2.40;2.20;;;;;;;;;;5128914;27;20943;-70
2023/09/03 14:24:13;;;;;;;2.40;2.20;;;;;;;;;;5124878;27;20429;-69
2023/09/03 14:26:40;;;;;;;2.38;2.28;;;;;;;;;;5129693;27;20439;-70
2023/09/03 14:29:09;;;;;;;2.17;2.08;;;;;;;;;;5125293;27;20429;-70